Minneapolis, Minnesota
Traffic Map
Current Weather Conditions
Minneapolis, Minnesota
Overcast
Overcast
22°
Feels Like: 22°
Wind Chill: 22° Ceiling: 18000
Heat Index: 22° Visibility: 10mi
Dew Point: 12° Wind: 5mph
Humidity: 53% Direction: ° ()
Pressure: 30.15in Gusts: 0mph
Raw Report DataKMSP 261953Z VRB04KT 10SM SCT050 OVC180 22/12 A3015 RMK AO2 SLP208 T02170117
Traffic Incident Summary
Active as of:
Severity:
Category:
InformationThere was an issue retrieving the traffic information for this location. Please try a different location or try again shortly.
Advertisements
Track Severe Weather on mobile